Time;durP1;ratioP1;P1;durP2;ratioP2;P2;SDS_P1;SDS_P2;PMS_P1;PMS_P2;Temp;Humidity;BMP_temperature;BMP_pressure;BME280_temperature;BME280_humidity;BME280_pressure;Samples;Min_cycle;Max_cycle;Signal;HPM_P1;HPM_P2
2021/05/23 00:00:28;;;;;;;6.73;4.40;;;;;;;8.37;100.00;99993.72;5035773;28;20180;-75
2021/05/23 00:02:55;;;;;;;7.60;4.00;;;;;;;8.32;100.00;100003.75;5034399;28;20195;-75
2021/05/23 00:05:23;;;;;;;8.93;4.70;;;;;;;8.31;100.00;100007.34;5035779;28;20175;-75
2021/05/23 00:08:02;;;;;;;7.53;3.67;;;;;;;8.31;100.00;99999.38;5034837;28;20173;-75
2021/05/23 00:10:29;;;;;;;9.47;4.10;;;;;;;8.27;100.00;100000.47;5034535;28;20188;-73
2021/05/23 00:12:56;;;;;;;8.90;4.13;;;;;;;8.29;100.00;100006.56;5016739;28;20291;-74
2021/05/23 00:15:25;;;;;;;8.70;4.07;;;;;;;8.25;100.00;100001.50;5032949;28;20202;-74
2021/05/23 00:17:51;;;;;;;8.60;4.20;;;;;;;8.25;100.00;99997.06;5033532;28;20203;-74
2021/05/23 00:20:16;;;;;;;4.30;3.43;;;;;;;8.24;100.00;100003.31;5033217;28;20179;-74
2021/05/23 00:22:42;;;;;;;6.87;4.00;;;;;;;8.24;100.00;99999.81;5016074;28;20336;-75
2021/05/23 00:25:07;;;;;;;9.13;4.83;;;;;;;8.21;100.00;100003.50;5017945;28;20175;-74
2021/05/23 00:27:33;;;;;;;11.50;4.60;;;;;;;8.31;100.00;100012.66;5032245;28;20171;-74
2021/05/23 00:29:58;;;;;;;5.93;4.07;;;;;;;8.22;100.00;100013.19;5032742;28;20536;-74
2021/05/23 00:32:23;;;;;;;7.77;4.30;;;;;;;8.24;100.00;100019.28;5031621;28;20565;-74
2021/05/23 00:34:49;;;;;;;8.10;4.10;;;;;;;8.25;100.00;100018.31;5032914;28;20651;-74
2021/05/23 00:37:14;;;;;;;8.70;4.10;;;;;;;8.22;100.00;100013.19;5032334;28;20182;-75
2021/05/23 00:39:39;;;;;;;10.80;4.20;;;;;;;8.12;100.00;100015.47;5032633;28;20172;-75
2021/05/23 00:42:05;;;;;;;7.13;4.30;;;;;;;8.12;100.00;100011.97;5014989;28;20541;-75
2021/05/23 00:44:31;;;;;;;6.93;4.23;;;;;;;8.15;100.00;100014.44;5032706;28;20167;-75
2021/05/23 00:46:56;;;;;;;8.63;4.77;;;;;;;8.10;100.00;100013.84;5031927;28;20176;-75
2021/05/23 00:49:21;;;;;;;7.23;4.20;;;;;;;8.04;100.00;100020.38;5015391;28;20230;-75
2021/05/23 00:51:47;;;;;;;8.20;3.80;;;;;;;8.01;100.00;100020.53;5035903;28;20226;-75
2021/05/23 00:54:12;;;;;;;11.93;4.90;;;;;;;8.01;100.00;100015.22;5036836;28;20231;-75
2021/05/23 00:56:37;;;;;;;8.67;4.53;;;;;;;7.97;100.00;100018.13;5037024;28;20211;-75
2021/05/23 00:59:03;;;;;;;9.47;4.10;;;;;;;8.01;100.00;100020.53;5036842;28;20179;-75
2021/05/23 01:01:43;;;;;;;7.10;4.03;;;;;;;7.91;100.00;100029.09;5036519;28;20253;-75
2021/05/23 01:04:09;;;;;;;7.93;4.90;;;;;;;7.89;100.00;100031.00;5035407;28;20284;-75
2021/05/23 01:06:34;;;;;;;5.73;4.03;;;;;;;7.87;100.00;100031.06;5035247;28;20611;-75
2021/05/23 01:09:00;;;;;;;7.87;3.77;;;;;;;7.83;100.00;100035.69;5036628;28;20183;-75
2021/05/23 01:11:28;;;;;;;9.90;4.00;;;;;;;7.78;100.00;100027.09;5035429;28;20184;-75
2021/05/23 01:13:56;;;;;;;6.93;3.83;;;;;;;7.78;100.00;100035.06;5034812;28;20490;-75
2021/05/23 01:16:23;;;;;;;10.53;4.43;;;;;;;7.67;100.00;100033.94;5035260;28;20587;-75
2021/05/23 01:18:58;;;;;;;8.63;3.97;;;;;;;7.64;100.00;100037.59;5018365;28;20234;-75
2021/05/23 01:21:26;;;;;;;9.37;4.00;;;;;;;7.62;100.00;100046.59;5035201;28;20179;-75
2021/05/23 01:23:57;;;;;;;9.03;4.20;;;;;;;7.57;100.00;100046.00;5034733;28;20188;-74
2021/05/23 01:26:24;;;;;;;9.30;3.80;;;;;;;7.53;100.00;100053.25;5034760;28;20186;-75
2021/05/23 01:28:59;;;;;;;11.80;4.07;;;;;;;7.55;100.00;100069.97;5018261;28;20179;-74
2021/05/23 01:31:28;;;;;;;7.13;3.90;;;;;;;7.50;100.00;100056.09;5034916;28;20207;-74
2021/05/23 01:33:55;;;;;;;14.33;4.00;;;;;;;7.49;100.00;100059.69;5034915;28;20685;-75
2021/05/23 01:36:21;;;;;;;7.90;3.93;;;;;;;7.44;100.00;100053.75;5034549;28;20191;-74
2021/05/23 01:38:46;;;;;;;6.87;4.33;;;;;;;7.40;100.00;100063.66;5018261;28;20248;-74
2021/05/23 01:41:12;;;;;;;10.50;4.20;;;;;;;7.36;100.00;100072.72;5036422;28;20176;-73
2021/05/23 01:43:38;;;;;;;8.77;3.70;;;;;;;7.37;100.00;100076.22;5035649;28;20689;-74
2021/05/23 01:46:04;;;;;;;7.53;3.73;;;;;;;7.32;100.00;100073.81;5036749;28;20249;-74
2021/05/23 01:48:35;;;;;;;8.27;4.43;;;;;;;7.35;100.00;100071.00;5036137;28;20177;-74
2021/05/23 01:51:01;;;;;;;7.53;3.77;;;;;;;7.36;100.00;100077.16;5034624;28;20160;-73
2021/05/23 01:53:26;;;;;;;9.67;3.80;;;;;;;7.34;100.00;100079.91;5035228;28;20227;-73
2021/05/23 01:55:52;;;;;;;11.40;3.70;;;;;;;7.34;100.00;100081.69;5034464;28;20176;-74
2021/05/23 01:58:17;;;;;;;12.27;3.90;;;;;;;7.35;100.00;100073.66;5034124;28;20183;-73
2021/05/23 02:00:45;;;;;;;6.80;3.53;;;;;;;7.37;100.00;100070.91;5034324;28;20180;-74
2021/05/23 02:03:11;;;;;;;10.50;3.27;;;;;;;7.39;100.00;100084.97;5034378;28;20203;-74
2021/05/23 02:05:39;;;;;;;7.33;3.83;;;;;;;7.33;100.00;100083.50;5036922;28;20195;-74
2021/05/23 02:08:05;;;;;;;6.30;3.50;;;;;;;7.37;100.00;100090.34;5020346;28;20191;-75
2021/05/23 02:10:30;;;;;;;7.43;3.20;;;;;;;7.49;99.92;100080.91;5034166;28;20176;-75
2021/05/23 02:12:59;;;;;;;6.47;3.10;;;;;;;7.51;98.87;100074.59;5018055;28;20200;-75
2021/05/23 02:15:25;;;;;;;6.67;3.00;;;;;;;7.55;97.25;100080.59;5034580;28;20203;-75
2021/05/23 02:17:51;;;;;;;6.73;3.17;;;;;;;7.53;96.56;100091.28;5034299;28;20172;-75
2021/05/23 02:20:22;;;;;;;7.00;2.93;;;;;;;7.70;93.61;100085.09;5035186;28;20297;-74
2021/05/23 02:22:49;;;;;;;5.93;2.70;;;;;;;7.80;90.84;100085.44;5035020;28;20192;-74
2021/05/23 02:25:19;;;;;;;7.27;2.50;;;;;;;7.78;90.16;100082.88;5017261;28;20203;-73
2021/05/23 02:27:46;;;;;;;7.33;2.50;;;;;;;7.88;89.15;100085.06;5017137;28;20184;-74
2021/05/23 02:30:17;;;;;;;5.63;2.20;;;;;;;7.84;88.55;100082.56;5034695;28;20172;-73
2021/05/23 02:32:44;;;;;;;3.10;1.73;;;;;;;7.89;87.69;100105.38;5033385;28;20192;-74
2021/05/23 02:35:10;;;;;;;7.33;2.07;;;;;;;8.00;86.36;100089.72;5033439;28;20680;-73
2021/05/23 02:37:36;;;;;;;2.90;2.00;;;;;;;8.08;84.21;100092.81;5017843;28;20202;-73
2021/05/23 02:40:07;;;;;;;5.57;1.97;;;;;;;8.02;84.63;100093.16;5033975;28;20165;-74
2021/05/23 02:42:33;;;;;;;3.83;1.87;;;;;;;8.05;83.58;100085.00;5033665;28;20642;-74
2021/05/23 02:44:58;;;;;;;5.00;1.77;;;;;;;8.08;82.82;100092.81;5034940;28;20225;-73
2021/05/23 02:47:24;;;;;;;6.10;2.17;;;;;;;8.10;82.88;100104.22;5034167;28;20702;-75
2021/05/23 02:49:49;;;;;;;9.33;2.50;;;;;;;8.12;81.82;100094.34;5034934;28;20171;-75
2021/05/23 02:52:14;;;;;;;3.73;2.10;;;;;;;8.14;82.04;100103.09;5033379;28;20679;-74
2021/05/23 02:54:40;;;;;;;4.60;1.83;;;;;;;8.14;82.08;100108.41;5033485;28;20188;-74
2021/05/23 02:57:05;;;;;;;8.10;2.30;;;;;;;8.20;81.18;100110.78;5033575;28;20292;-73
2021/05/23 02:59:31;;;;;;;7.63;2.10;;;;;;;8.25;80.92;100099.88;5033107;28;20262;-74
2021/05/23 03:01:57;;;;;;;4.33;1.80;;;;;;;8.27;80.71;100112.16;5033602;28;20799;-74
2021/05/23 03:04:22;;;;;;;6.80;2.27;;;;;;;8.31;80.63;100119.00;5016644;28;20172;-73
2021/05/23 03:06:48;;;;;;;2.70;1.53;;;;;;;8.36;80.17;100111.66;5016659;28;20269;-74
2021/05/23 03:09:14;;;;;;;5.60;2.20;;;;;;;8.35;80.48;100117.94;5033099;28;20255;-74
2021/05/23 03:11:40;;;;;;;4.43;1.90;;;;;;;8.40;80.15;100121.19;5033205;28;20190;-73
2021/05/23 03:14:05;;;;;;;4.73;1.57;;;;;;;8.42;80.03;100131.75;5033664;28;20672;-74
2021/05/23 03:16:30;;;;;;;11.23;2.03;;;;;;;8.48;79.18;100128.72;5034401;28;20585;-73
2021/05/23 03:18:55;;;;;;;6.10;2.00;;;;;;;8.55;78.68;100137.22;5033894;28;20636;-73
2021/05/23 03:21:21;;;;;;;5.90;2.00;;;;;;;8.59;78.19;100144.13;5016733;28;20203;-74
2021/05/23 03:23:46;;;;;;;4.57;1.77;;;;;;;8.64;78.22;100140.25;5032813;28;20191;-74
2021/05/23 03:26:11;;;;;;;5.37;1.80;;;;;;;8.59;78.87;100144.97;5038278;28;20175;-74
2021/05/23 03:28:37;;;;;;;6.70;1.87;;;;;;;8.59;78.82;100146.78;5044132;28;20176;-75
2021/05/23 03:31:02;;;;;;;5.40;2.13;;;;;;;8.62;79.02;100162.56;5035835;28;20628;-74
2021/05/23 03:33:27;;;;;;;3.33;1.43;;;;;;;8.77;77.69;100153.72;5034353;28;20208;-74
2021/05/23 03:35:53;;;;;;;5.60;1.73;;;;;;;8.77;77.99;100153.72;5034782;28;20172;-75
2021/05/23 03:38:18;;;;;;;4.27;1.73;;;;;;;8.72;77.61;100153.13;5033958;28;20188;-75
2021/05/23 03:40:43;;;;;;;4.50;1.73;;;;;;;8.80;77.58;100152.69;5033494;28;20198;-74
2021/05/23 03:43:09;;;;;;;5.67;2.17;;;;;;;8.83;78.04;100163.16;5033224;28;20207;-74
2021/05/23 03:45:34;;;;;;;6.33;1.80;;;;;;;8.86;77.37;100168.31;5041689;28;20180;-75
2021/05/23 03:47:59;;;;;;;4.83;1.90;;;;;;;8.78;78.08;100155.44;5041171;28;20254;-74
2021/05/23 03:50:25;;;;;;;6.07;2.20;;;;;;;8.78;78.14;100169.59;5036973;28;20186;-75
2021/05/23 03:52:55;;;;;;;10.23;1.97;;;;;;;8.80;77.72;100161.53;5042177;23;20234;-71
2021/05/23 03:55:21;;;;;;;3.70;1.90;;;;;;;8.80;78.24;100158.88;5054980;28;20200;-70
2021/05/23 03:57:46;;;;;;;5.10;2.03;;;;;;;8.86;77.71;100168.31;5066779;28;20176;-71
2021/05/23 04:00:14;;;;;;;6.20;2.20;;;;;;;8.94;77.17;100166.09;5067548;28;20176;-71
2021/05/23 04:02:40;;;;;;;3.73;1.87;;;;;;;8.90;77.65;100169.84;5065879;28;20238;-69
2021/05/23 04:05:05;;;;;;;4.67;2.20;;;;;;;8.85;77.52;100171.91;5065791;28;20200;-71
2021/05/23 04:07:31;;;;;;;3.10;1.60;;;;;;;8.92;76.26;100168.84;5037691;28;20197;-70
2021/05/23 04:09:57;;;;;;;3.73;1.77;;;;;;;8.86;77.49;100174.47;5033751;28;20712;-71
2021/05/23 04:12:28;;;;;;;5.63;2.20;;;;;;;8.95;76.39;100174.00;5033720;28;20659;-70
2021/05/23 04:14:54;;;;;;;5.10;2.07;;;;;;;9.04;76.34;100181.44;5048599;28;20279;-71
2021/05/23 04:17:19;;;;;;;5.27;1.93;;;;;;;9.14;75.35;100186.25;5033233;28;20528;-70
2021/05/23 04:19:44;;;;;;;3.83;1.93;;;;;;;9.14;75.02;100188.91;5033429;28;20181;-71
2021/05/23 04:22:10;;;;;;;3.67;1.57;;;;;;;9.01;76.17;100189.59;5034434;28;20176;-72
2021/05/23 04:24:38;;;;;;;6.03;1.90;;;;;;;9.04;75.73;100192.09;5035510;28;20608;-71
2021/05/23 04:27:03;;;;;;;4.17;1.93;;;;;;;9.07;75.66;100191.91;5033300;28;20532;-71
2021/05/23 04:29:29;;;;;;;6.17;1.57;;;;;;;9.07;75.64;100183.94;5033112;28;20252;-71
2021/05/23 04:31:54;;;;;;;6.87;1.77;;;;;;;8.95;75.78;100184.63;5031586;28;20218;-70
2021/05/23 04:34:19;;;;;;;7.30;2.33;;;;;;;9.15;75.45;100201.25;5031487;28;20195;-71
2021/05/23 04:36:45;;;;;;;6.23;1.80;;;;;;;9.17;74.81;100196.72;5032798;28;20176;-71
2021/05/23 04:39:10;;;;;;;7.23;2.20;;;;;;;9.31;74.18;100202.13;5031570;28;20542;-71
2021/05/23 04:41:35;;;;;;;4.13;1.63;;;;;;;9.41;74.28;100205.97;5031742;28;20188;-71
2021/05/23 04:44:01;;;;;;;6.73;1.87;;;;;;;9.38;73.91;100200.81;5031409;28;20192;-71
2021/05/23 04:46:26;;;;;;;6.23;2.27;;;;;;;9.47;73.11;100207.41;5048195;28;20173;-70
2021/05/23 04:48:52;;;;;;;3.03;1.50;;;;;;;9.48;73.00;100206.47;5033081;28;20529;-71
2021/05/23 04:51:17;;;;;;;4.37;1.80;;;;;;;9.55;71.98;100214.00;5031395;28;20183;-71
2021/05/23 04:53:42;;;;;;;5.63;1.97;;;;;;;9.56;71.48;100215.72;5047587;28;20440;-70
2021/05/23 04:56:08;;;;;;;7.57;1.80;;;;;;;9.55;71.91;100214.00;5031578;28;20231;-71
2021/05/23 04:58:33;;;;;;;2.03;1.20;;;;;;;9.74;70.16;100208.47;5032784;28;20223;-71
2021/05/23 05:00:58;;;;;;;7.27;1.50;;;;;;;9.79;70.49;100225.03;5032827;28;20195;-71
2021/05/23 05:03:24;;;;;;;3.70;1.37;;;;;;;9.92;68.08;100225.16;5033005;28;20199;-71
2021/05/23 05:05:49;;;;;;;5.83;1.47;;;;;;;9.95;69.21;100220.50;5031282;28;20172;-71
2021/05/23 05:08:14;;;;;;;7.70;1.60;;;;;;;9.99;67.98;100226.50;5032419;28;20537;-71
2021/05/23 05:10:40;;;;;;;6.37;1.83;;;;;;;10.05;67.89;100226.16;5032446;28;20207;-71
2021/05/23 05:13:05;;;;;;;7.30;1.50;;;;;;;9.98;68.28;100225.63;5032551;28;20203;-71
2021/05/23 05:15:30;;;;;;;2.90;1.10;;;;;;;10.09;67.72;100237.50;5032251;28;20196;-71
2021/05/23 05:17:55;;;;;;;3.40;1.20;;;;;;;10.08;66.00;100220.63;5031101;28;20173;-71
2021/05/23 05:20:21;;;;;;;6.90;1.30;;;;;;;10.06;67.23;100232.34;5031118;28;20172;-71
2021/05/23 05:22:46;;;;;;;6.33;1.53;;;;;;;10.10;68.16;100237.41;5047401;28;20196;-71
2021/05/23 05:25:12;;;;;;;3.70;1.67;;;;;;;10.11;67.39;100240.91;5031115;28;20637;-72
2021/05/23 05:27:37;;;;;;;5.47;1.80;;;;;;;10.08;67.05;100249.97;5047564;28;20176;-71
2021/05/23 05:30:05;;;;;;;4.37;1.67;;;;;;;10.17;66.84;100249.41;5030969;28;20207;-71
2021/05/23 05:32:30;;;;;;;5.00;1.33;;;;;;;10.21;66.61;100248.28;5032168;28;20644;-71
2021/05/23 05:34:55;;;;;;;3.73;1.50;;;;;;;10.22;67.27;100257.16;5047867;28;20228;-71
2021/05/23 05:37:21;;;;;;;7.47;1.90;;;;;;;10.37;65.43;100247.34;5033807;28;20172;-71
2021/05/23 05:39:46;;;;;;;4.27;1.30;;;;;;;10.40;65.60;100263.16;5035717;28;20183;-71
2021/05/23 05:42:11;;;;;;;3.67;1.43;;;;;;;10.31;65.67;100264.59;5035499;28;20601;-71
2021/05/23 05:44:37;;;;;;;5.57;1.63;;;;;;;10.28;66.44;100259.44;5034304;28;20219;-72
2021/05/23 05:47:02;;;;;;;3.60;1.30;;;;;;;10.25;66.54;100263.16;5034882;28;20180;-72
2021/05/23 05:49:27;;;;;;;5.13;1.50;;;;;;;10.31;66.91;100260.13;5035730;28;20194;-72
2021/05/23 05:51:53;;;;;;;4.73;1.40;;;;;;;10.35;66.31;100276.78;5035437;28;20857;-71
2021/05/23 05:54:18;;;;;;;5.13;2.40;;;;;;;10.27;66.48;100260.41;5035131;28;20556;-72
2021/05/23 05:56:43;;;;;;;5.17;1.40;;;;;;;10.33;65.50;100274.22;5035691;28;20191;-72
2021/05/23 05:59:08;;;;;;;3.13;1.20;;;;;;;10.34;66.71;100267.94;5034583;28;20168;-72
2021/05/23 06:01:34;;;;;;;3.87;1.60;;;;;;;10.44;65.74;100278.91;5035379;28;20207;-71
2021/05/23 06:03:59;;;;;;;4.30;1.37;;;;;;;10.47;65.90;100273.41;5034697;28;20241;-72
2021/05/23 06:06:24;;;;;;;3.53;1.47;;;;;;;10.54;65.34;100282.72;5033895;28;20176;-72
2021/05/23 06:08:50;;;;;;;6.33;1.80;;;;;;;10.58;64.54;100280.72;5035129;28;20177;-72
2021/05/23 06:11:15;;;;;;;6.83;1.80;;;;;;;10.45;65.32;100285.97;5033999;28;20168;-72
2021/05/23 06:13:40;;;;;;;3.83;1.50;;;;;;;10.31;65.21;100283.25;5033843;28;20196;-71
2021/05/23 06:16:06;;;;;;;4.57;1.37;;;;;;;10.38;65.07;100281.94;5035173;28;20181;-72
2021/05/23 06:18:31;;;;;;;7.13;2.20;;;;;;;10.40;64.94;100287.19;5035305;28;20222;-72
2021/05/23 06:20:56;;;;;;;6.63;2.20;;;;;;;10.24;64.97;100280.13;5035200;28;20655;-73
2021/05/23 06:23:22;;;;;;;4.20;1.60;;;;;;;10.32;65.65;100293.84;5050228;28;20242;-72
2021/05/23 06:25:47;;;;;;;4.57;1.70;;;;;;;10.27;65.58;100295.06;5033585;28;20176;-71
2021/05/23 06:28:13;;;;;;;6.73;1.63;;;;;;;10.13;64.55;100303.00;5035436;28;20254;-73
2021/05/23 06:30:38;;;;;;;5.63;2.10;;;;;;;9.93;66.24;100302.38;5033505;28;20615;-72
2021/05/23 06:33:03;;;;;;;5.40;1.60;;;;;;;9.66;69.13;100306.63;5034541;28;20612;-72
2021/05/23 06:35:29;;;;;;;5.53;2.10;;;;;;;9.35;71.22;100304.88;5033296;28;20200;-72
2021/05/23 06:37:54;;;;;;;4.57;1.60;;;;;;;9.14;72.96;100319.34;5033571;28;20250;-71
2021/05/23 06:40:20;;;;;;;3.63;1.80;;;;;;;9.19;72.84;100323.47;5034494;28;20172;-72
2021/05/23 06:42:45;;;;;;;5.37;2.30;;;;;;;9.22;72.92;100328.63;5034547;28;20314;-71
2021/05/23 06:45:11;;;;;;;3.87;1.80;;;;;;;9.24;72.61;100334.72;5034502;28;20179;-71
2021/05/23 06:47:36;;;;;;;5.63;1.90;;;;;;;9.43;72.90;100331.06;5048461;28;20310;-71
2021/05/23 06:50:03;;;;;;;8.93;2.73;;;;;;;9.60;71.06;100337.16;5033116;28;20180;-71
2021/05/23 06:52:28;;;;;;;8.07;1.87;;;;;;;9.74;71.46;100341.72;5032650;28;20191;-71
2021/05/23 06:54:53;;;;;;;5.67;1.70;;;;;;;9.87;70.86;100336.53;5033399;28;20541;-70
2021/05/23 06:57:19;;;;;;;5.10;1.50;;;;;;;9.95;70.75;100339.59;5034149;28;20541;-70
2021/05/23 06:59:44;;;;;;;6.70;2.63;;;;;;;10.09;68.83;100345.00;5034369;28;20180;-70
2021/05/23 07:02:09;;;;;;;4.27;1.77;;;;;;;10.20;68.33;100347.03;5032929;28;20172;-70
2021/05/23 07:04:35;;;;;;;4.77;1.53;;;;;;;10.40;68.15;100349.41;5033018;28;20733;-70
2021/05/23 07:07:00;;;;;;;7.40;1.70;;;;;;;10.53;67.02;100360.22;5034258;28;20540;-70
2021/05/23 07:09:25;;;;;;;3.97;1.60;;;;;;;10.47;66.56;100358.78;5034101;28;20179;-70
2021/05/23 07:11:50;;;;;;;5.93;1.83;;;;;;;10.43;67.29;100362.59;5034392;28;20215;-70
2021/05/23 07:14:16;;;;;;;4.13;1.57;;;;;;;10.36;66.93;100357.69;5033732;28;20203;-70
2021/05/23 07:16:41;;;;;;;8.73;2.27;;;;;;;10.45;66.51;100366.00;5034547;28;20187;-70
2021/05/23 07:19:06;;;;;;;5.77;2.23;;;;;;;10.53;66.04;100362.88;5032993;28;20180;-71
2021/05/23 07:21:32;;;;;;;7.33;2.80;;;;;;;10.71;66.53;100359.09;5034041;28;20172;-71
2021/05/23 07:23:57;;;;;;;4.30;1.60;;;;;;;10.42;68.21;100363.53;5033986;28;20199;-71
2021/05/23 07:26:22;;;;;;;6.90;2.50;;;;;;;11.05;65.62;100379.22;5034076;28;20172;-72
2021/05/23 07:28:48;;;;;;;6.20;1.90;;;;;;;11.15;63.72;100360.81;5033854;28;20204;-72
2021/05/23 07:31:13;;;;;;;3.63;1.70;;;;;;;11.42;62.57;100361.75;5032802;28;20268;-72
2021/05/23 07:33:38;;;;;;;5.17;1.37;;;;;;;11.37;61.54;100369.19;5034019;28;20200;-72
2021/05/23 07:36:06;;;;;;;5.83;1.57;;;;;;;11.52;60.77;100372.69;5032998;28;20176;-72
2021/05/23 07:38:33;;;;;;;5.77;2.37;;;;;;;11.58;62.52;100372.34;5033914;28;20195;-72
2021/05/23 07:40:58;;;;;;;3.77;1.97;;;;;;;11.58;61.16;100375.88;5034579;28;20633;-72
2021/05/23 07:43:23;;;;;;;5.23;1.60;;;;;;;11.31;59.83;100384.78;5036311;28;20275;-71
2021/05/23 07:45:49;;;;;;;5.37;1.57;;;;;;;11.31;60.65;100374.94;5032430;28;20164;-71
2021/05/23 07:48:14;;;;;;;7.07;2.87;;;;;;;11.35;61.21;100384.47;5032498;28;20571;-71
2021/05/23 07:50:39;;;;;;;5.50;1.60;;;;;;;11.28;59.69;100373.31;5033303;28;20226;-71
2021/05/23 07:53:05;;;;;;;3.83;1.20;;;;;;;11.38;59.83;100384.28;5033556;28;20208;-71
2021/05/23 07:55:30;;;;;;;7.50;1.83;;;;;;;11.59;59.46;100390.09;5032321;28;20230;-72
2021/05/23 07:57:56;;;;;;;4.97;1.60;;;;;;;11.84;59.28;100378.69;5048834;28;20226;-72
2021/05/23 08:00:21;;;;;;;7.10;1.50;;;;;;;11.85;59.60;100377.72;5031962;28;20298;-72
2021/05/23 08:02:47;;;;;;;4.70;1.60;;;;;;;11.93;59.45;100383.44;5033704;28;20230;-72
2021/05/23 08:05:12;;;;;;;4.47;1.40;;;;;;;12.06;58.00;100384.34;5032479;28;20652;-72
2021/05/23 08:07:37;;;;;;;3.27;1.40;;;;;;;12.16;56.67;100385.44;5032131;28;20207;-72
2021/05/23 08:10:05;;;;;;;8.90;2.50;;;;;;;11.98;57.80;100392.03;5032173;28;20211;-72
2021/05/23 08:12:32;;;;;;;4.20;1.60;;;;;;;11.97;57.26;100393.00;5032120;28;20176;-72
2021/05/23 08:14:58;;;;;;;4.57;1.57;;;;;;;12.18;55.71;100378.19;5031922;28;20294;-71
2021/05/23 08:17:23;;;;;;;2.67;1.20;;;;;;;12.27;57.03;100391.94;5048938;28;20203;-71
2021/05/23 08:19:49;;;;;;;3.17;1.43;;;;;;;12.67;55.25;100395.44;5033014;28;20230;-72
2021/05/23 08:22:14;;;;;;;6.07;1.57;;;;;;;12.77;54.77;100397.38;5033046;28;20168;-72
2021/05/23 08:24:39;;;;;;;3.67;1.20;;;;;;;12.79;56.17;100394.59;5032994;28;20236;-73
2021/05/23 08:27:05;;;;;;;3.70;1.40;;;;;;;13.26;53.74;100388.59;5033498;28;20176;-72
2021/05/23 08:29:30;;;;;;;3.13;1.30;;;;;;;13.21;53.60;100398.81;5032179;28;20645;-72
2021/05/23 08:31:59;;;;;;;4.93;1.30;;;;;;;12.90;53.42;100407.22;5032278;28;20168;-72
2021/05/23 08:34:25;;;;;;;5.53;1.83;;;;;;;12.41;55.62;100405.22;5032038;28;20196;-72
2021/05/23 08:36:50;;;;;;;5.40;1.40;;;;;;;12.27;57.68;100406.16;5032243;28;20233;-72
2021/05/23 08:39:16;;;;;;;2.27;1.03;;;;;;;12.61;55.67;100410.06;5032854;28;20183;-72
2021/05/23 08:41:44;;;;;;;3.70;1.23;;;;;;;13.21;55.01;100412.19;5032118;28;20172;-71
2021/05/23 08:44:10;;;;;;;3.90;1.40;;;;;;;13.46;52.55;100411.31;5048861;28;20279;-72
2021/05/23 08:46:35;;;;;;;7.20;1.70;;;;;;;13.83;51.03;100412.22;5032363;28;20168;-72
2021/05/23 08:49:01;;;;;;;6.10;1.77;;;;;;;13.91;51.77;100411.66;5032883;28;20168;-72
2021/05/23 08:51:27;;;;;;;4.07;2.00;;;;;;;14.06;51.14;100418.56;5033952;28;20172;-71
2021/05/23 08:53:52;;;;;;;4.97;2.10;;;;;;;13.84;52.60;100427.34;5048176;28;20212;-72
2021/05/23 08:56:17;;;;;;;5.33;1.90;;;;;;;13.96;51.93;100420.22;5031665;28;20641;-73
2021/05/23 08:58:43;;;;;;;5.40;1.50;;;;;;;13.62;51.79;100437.88;5031928;28;20254;-73
2021/05/23 09:01:08;;;;;;;4.73;2.93;;;;;;;13.46;52.99;100440.81;5032065;28;20243;-72
2021/05/23 09:03:33;;;;;;;3.03;1.20;;;;;;;13.43;52.55;100430.31;5031817;28;20196;-72
2021/05/23 09:05:59;;;;;;;5.53;1.40;;;;;;;13.89;51.65;100424.31;5031915;28;20540;-72
2021/05/23 09:08:29;;;;;;;3.87;1.47;;;;;;;13.84;52.36;100454.16;5031728;28;20168;-72
2021/05/23 09:10:59;;;;;;;5.93;1.83;;;;;;;13.89;51.34;100441.25;5033513;28;20314;-72
2021/05/23 09:13:34;;;;;;;4.73;1.90;;;;;;;13.76;51.35;100451.19;5035336;28;20207;-72
2021/05/23 09:16:03;;;;;;;6.13;1.80;;;;;;;13.86;51.75;100435.28;5035603;28;20310;-72
2021/05/23 09:18:56;;;;;;;3.97;1.20;;;;;;;13.61;52.12;100458.47;5035613;28;20188;-72
2021/05/23 09:21:28;;;;;;;6.03;1.67;;;;;;;14.05;51.34;100444.53;5035815;28;20165;-72
2021/05/23 09:23:54;;;;;;;5.17;1.70;;;;;;;13.88;51.55;100447.59;5036597;28;20191;-72
2021/05/23 09:26:24;;;;;;;4.77;2.10;;;;;;;13.77;51.27;100443.03;5035303;28;20176;-72
2021/05/23 09:28:50;;;;;;;7.17;2.37;;;;;;;13.44;52.00;100450.78;5052257;28;20204;-72
2021/05/23 09:31:26;;;;;;;4.37;1.87;;;;;;;13.31;52.66;100452.59;5035499;28;20579;-73
2021/05/23 09:33:53;;;;;;;6.70;1.50;;;;;;;13.08;53.39;100449.69;5036639;28;20199;-72
2021/05/23 09:36:19;;;;;;;3.97;1.30;;;;;;;13.31;52.94;100457.97;5052113;28;20270;-73
2021/05/23 09:38:59;;;;;;;4.93;2.10;;;;;;;13.07;52.53;100469.41;5052821;28;20183;-73
2021/05/23 09:41:29;;;;;;;2.37;1.30;;;;;;;13.13;52.72;100463.63;5039706;28;20544;-74
2021/05/23 09:44:13;;;;;;;5.57;1.33;;;;;;;13.47;51.74;100455.09;5037768;28;20748;-73
2021/05/23 09:47:04;;;;;;;3.60;1.30;;;;;;;13.80;51.30;100457.19;5038186;28;20199;-73
2021/05/23 09:49:40;;;;;;;3.40;1.30;;;;;;;13.83;50.46;100462.31;5037014;28;20175;-72
2021/05/23 09:52:08;;;;;;;4.70;1.83;;;;;;;13.65;49.98;100462.66;5036483;28;20188;-73
2021/05/23 09:54:47;;;;;;;6.33;2.80;;;;;;;13.84;50.10;100462.22;5036522;28;20215;-73
2021/05/23 09:57:15;;;;;;;3.83;1.20;;;;;;;14.23;50.79;100462.94;5035634;28;20187;-72
2021/05/23 09:59:41;;;;;;;7.33;1.80;;;;;;;14.19;51.15;100472.19;5034959;28;20735;-72
2021/05/23 10:02:08;;;;;;;4.07;1.40;;;;;;;14.23;50.19;100469.19;5035067;28;20176;-73
2021/05/23 10:04:34;;;;;;;6.47;3.50;;;;;;;14.75;49.79;100472.50;5034748;28;20188;-73
2021/05/23 10:07:05;;;;;;;5.50;2.10;;;;;;;14.50;48.37;100474.38;5050936;28;20176;-73
2021/05/23 10:09:31;;;;;;;4.50;1.70;;;;;;;14.45;49.97;100487.25;5051414;28;20195;-73
2021/05/23 10:11:57;;;;;;;5.03;2.53;;;;;;;14.44;47.98;100490.03;5034673;28;20165;-74
2021/05/23 10:14:22;;;;;;;3.00;1.10;;;;;;;14.43;49.06;100478.44;5034036;28;20200;-73
2021/05/23 10:16:52;;;;;;;3.93;1.20;;;;;;;14.50;49.05;100479.72;5034186;28;20234;-73
2021/05/23 10:19:30;;;;;;;6.97;1.60;;;;;;;14.49;49.88;100488.72;5050484;28;20173;-72
2021/05/23 10:21:57;;;;;;;3.57;1.40;;;;;;;14.75;49.04;100472.50;5034303;28;20243;-71
2021/05/23 10:24:25;;;;;;;7.03;3.23;;;;;;;14.83;48.63;100483.50;5033936;28;20230;-73
2021/05/23 10:26:54;;;;;;;2.80;1.10;;;;;;;14.94;47.31;100476.38;5035289;28;20199;-70
2021/05/23 10:29:20;;;;;;;3.50;1.17;;;;;;;14.79;46.76;100498.16;5050319;28;20183;-70
2021/05/23 10:31:46;;;;;;;4.53;1.40;;;;;;;15.14;45.94;100480.19;5033668;28;20544;-70
2021/05/23 10:34:12;;;;;;;4.77;1.60;;;;;;;15.93;47.16;100494.59;5033501;28;20236;-70
2021/05/23 10:36:43;;;;;;;5.17;1.83;;;;;;;15.58;44.73;100490.19;5034061;28;20588;-70
2021/05/23 10:39:11;;;;;;;8.67;1.37;;;;;;;16.05;45.05;100487.38;5033664;28;20165;-70
2021/05/23 10:41:37;;;;;;;3.77;1.10;;;;;;;15.77;44.54;100504.88;5035199;28;20620;-69
2021/05/23 10:44:07;;;;;;;3.00;1.20;;;;;;;16.19;44.49;100496.03;5033774;28;20200;-71
2021/05/23 10:46:44;;;;;;;4.50;1.20;;;;;;;16.16;44.69;100500.81;5034379;28;20181;-70
2021/05/23 10:49:09;;;;;;;4.57;1.20;;;;;;;15.67;45.09;100512.84;5040202;28;20540;-70
2021/05/23 10:51:34;;;;;;;4.43;1.83;;;;;;;15.17;46.77;100505.97;5036360;28;20294;-69
2021/05/23 10:54:00;;;;;;;6.37;2.27;;;;;;;15.07;46.12;100511.22;5046069;28;20216;-69
2021/05/23 10:56:29;;;;;;;4.33;1.10;;;;;;;15.42;45.78;100504.94;5049266;28;20181;-69
2021/05/23 10:59:02;;;;;;;4.10;1.10;;;;;;;16.09;43.87;100522.00;5059493;28;20187;-69
2021/05/23 11:01:37;;;;;;;2.80;1.30;;;;;;;17.36;40.80;100522.19;5034296;28;20242;-69
2021/05/23 11:04:15;;;;;;;3.83;1.10;;;;;;;18.58;37.21;100531.09;5033648;28;20188;-69
2021/05/23 11:06:42;;;;;;;4.77;1.50;;;;;;;19.53;36.06;100506.94;5033479;28;20597;-70
2021/05/23 11:09:13;;;;;;;5.20;1.30;;;;;;;21.36;33.23;100515.00;5033390;28;20183;-70
2021/05/23 11:11:39;;;;;;;2.73;1.17;;;;;;;21.85;31.37;100516.16;5034592;28;20161;-70
2021/05/23 11:14:31;;;;;;;2.17;0.83;;;;;;;22.86;28.69;100536.13;5032795;28;20212;-69
2021/05/23 11:16:57;;;;;;;3.27;0.70;;;;;;;22.86;28.55;100527.97;5029522;28;20184;-70
2021/05/23 11:19:26;;;;;;;6.23;1.30;;;;;;;19.95;33.19;100530.88;5049016;28;20176;-70
2021/05/23 11:21:53;;;;;;;5.27;1.13;;;;;;;18.27;36.00;100529.50;5033953;28;20490;-70
2021/05/23 11:24:24;;;;;;;2.77;1.00;;;;;;;16.71;39.66;100531.31;5050263;28;20195;-70